Pentwater, Michigan
Current Conditions -  °F | °C
As of 10:35 AM on Thursday 23 Oct 2014 (Local Time) from KLDM Reporting Station
Haze Haze  
Wind Chill: 37°   Ceiling: Unl
Heat Index: 40°   Visibility: 5mi
Dew Point: 39°   Wind: 5mph
Humidity: 95%   Direction: 120°ESE
Pressure: 30.21"   Gusts: NA
Location:  43.78°N, 86.43°W
Report Text: KLDM 231435Z AUTO 12004KT 5SM BR CLR 05/04 A3021 RMK AO2 T00470040
Loading
Personal Weather Stations






























Interactive Weather Map
Tropical Storm Tracking
New forecast layout! Learn more

10-Day Weather Forecast

Advertisements
Track Severe Weather on mobile